This is the latest recevied weather packets stored in our database for station/object N9BSW. If no packets are shown the sender has not sent any weather packets the latest 10 day(s).
| Time | Temp. | Humidity | Pressure | Rain* | Wind** | Luminosity | Snow |
|---|---|---|---|---|---|---|---|
| 1777142993 | 23.33° C | 40% | 1011.8 hPa | 0 mm | - | 812 W/m² | - |
| 1777142689 | 22.78° C | 43% | 1011.9 hPa | 0 mm | - | 821 W/m² | - |
| 1777142386 | 22.78° C | 45% | 1011.9 hPa | 0 mm | - | 823 W/m² | - |
| 1777142081 | 22.78° C | 45% | 1011.8 hPa | 0 mm | - | 831 W/m² | - |
| 1777141777 | 22.78° C | 46% | 1012.1 hPa | 0 mm | - | 828 W/m² | - |
| 1777141475 | 22.22° C | 47% | 1011.9 hPa | 0 mm | - | 830 W/m² | - |
| 1777141173 | 22.22° C | 47% | 1012.1 hPa | 0 mm | - | 835 W/m² | - |
| 1777140870 | 22.78° C | 45% | 1012.1 hPa | 0 mm | - | 853 W/m² | - |
| 1777140566 | 22.78° C | 50% | 1012.2 hPa | 0 mm | - | 845 W/m² | - |
| 1777140263 | 22.22° C | 51% | 1012.3 hPa | 0 mm | - | 843 W/m² | - |
| 1777139961 | 22.22° C | 52% | 1012.3 hPa | 0 mm | - | 836 W/m² | - |
| 1777139658 | 22.22° C | 50% | 1012.2 hPa | 0 mm | - | 846 W/m² | - |
| 1777139353 | 22.22° C | 51% | 1012.4 hPa | 0 mm | - | 837 W/m² | - |
| 1777139049 | 21.67° C | 54% | 1012.4 hPa | 0 mm | - | 843 W/m² | - |
| 1777138747 | 21.67° C | 53% | 1012.5 hPa | 0 mm | - | 839 W/m² | - |
| 1777138447 | 21.67° C | 58% | 1012.3 hPa | 0 mm | - | 842 W/m² | - |
| 1777138143 | 21.67° C | 58% | 1012.4 hPa | 0 mm | - | 835 W/m² | - |
| 1777137839 | 21.67° C | 57% | 1012.4 hPa | 0 mm | - | 844 W/m² | - |
| 1777137535 | 20.56° C | 63% | 1012.5 hPa | 0 mm | - | 857 W/m² | - |
| 1777137233 | 21.67° C | 55% | 1012.5 hPa | 0 mm | - | 854 W/m² | - |
| 1777136930 | 22.22° C | 54% | 1012.5 hPa | 0 mm | - | 847 W/m² | - |
| 1777136626 | 21.11° C | 61% | 1012.6 hPa | 0 mm | - | 845 W/m² | - |
| 1777136323 | 21.11° C | 60% | 1012.8 hPa | 0 mm | - | 891 W/m² | - |
| 1777136021 | 20.56° C | 61% | 1012.7 hPa | 0 mm | - | 870 W/m² | - |
| 1777135717 | 21.11° C | 66% | 1012.7 hPa | 0 mm | - | 455 W/m² | - |
* Rain latest hour (hover to see other rain measurements)
** Current wind speed in m/s (hover to see current wind gust speed)